sensor_id;sensor_type;location;lat;lon;timestamp;P1;durP1;ratioP1;P2;durP2;ratioP2
42668;SDS011;29384;42.028;21.388;2022-12-05T00:03:53;6.20;;;5.28;;
42668;SDS011;29384;42.028;21.388;2022-12-05T00:06:18;15.23;;;5.70;;
42668;SDS011;29384;42.028;21.388;2022-12-05T00:08:44;6.85;;;5.40;;
42668;SDS011;29384;42.028;21.388;2022-12-05T00:11:13;9.55;;;5.40;;
42668;SDS011;29384;42.028;21.388;2022-12-05T00:13:48;6.47;;;4.90;;
42668;SDS011;29384;42.028;21.388;2022-12-05T00:16:25;7.35;;;5.03;;
42668;SDS011;29384;42.028;21.388;2022-12-05T00:18:58;5.55;;;5.15;;
42668;SDS011;29384;42.028;21.388;2022-12-05T00:21:25;8.10;;;4.75;;
42668;SDS011;29384;42.028;21.388;2022-12-05T00:23:54;5.32;;;4.93;;
42668;SDS011;29384;42.028;21.388;2022-12-05T00:26:22;7.68;;;4.78;;
42668;SDS011;29384;42.028;21.388;2022-12-05T00:28:51;9.35;;;6.20;;
42668;SDS011;29384;42.028;21.388;2022-12-05T00:31:21;5.50;;;5.07;;
42668;SDS011;29384;42.028;21.388;2022-12-05T00:34:10;5.75;;;5.25;;
42668;SDS011;29384;42.028;21.388;2022-12-05T00:36:37;7.75;;;5.70;;
42668;SDS011;29384;42.028;21.388;2022-12-05T00:39:04;7.43;;;4.60;;
42668;SDS011;29384;42.028;21.388;2022-12-05T00:41:30;12.82;;;4.95;;
42668;SDS011;29384;42.028;21.388;2022-12-05T00:43:57;10.73;;;5.85;;
42668;SDS011;29384;42.028;21.388;2022-12-05T00:46:23;5.78;;;5.10;;
42668;SDS011;29384;42.028;21.388;2022-12-05T00:48:52;4.72;;;4.30;;
42668;SDS011;29384;42.028;21.388;2022-12-05T00:51:44;4.57;;;4.28;;
42668;SDS011;29384;42.028;21.388;2022-12-05T00:54:13;5.25;;;4.85;;
42668;SDS011;29384;42.028;21.388;2022-12-05T00:56:42;7.32;;;5.45;;
42668;SDS011;29384;42.028;21.388;2022-12-05T00:59:07;15.07;;;6.47;;
42668;SDS011;29384;42.028;21.388;2022-12-05T01:01:36;10.38;;;6.00;;
42668;SDS011;29384;42.028;21.388;2022-12-05T01:04:04;8.02;;;5.57;;
42668;SDS011;29384;42.028;21.388;2022-12-05T01:06:30;13.93;;;7.05;;
42668;SDS011;29384;42.028;21.388;2022-12-05T01:08:55;6.72;;;6.07;;
42668;SDS011;29384;42.028;21.388;2022-12-05T01:11:21;8.30;;;5.93;;
42668;SDS011;29384;42.028;21.388;2022-12-05T01:13:52;9.90;;;6.20;;
42668;SDS011;29384;42.028;21.388;2022-12-05T01:16:25;6.70;;;6.10;;
42668;SDS011;29384;42.028;21.388;2022-12-05T01:18:52;8.25;;;6.75;;
42668;SDS011;29384;42.028;21.388;2022-12-05T01:21:20;12.88;;;7.25;;
42668;SDS011;29384;42.028;21.388;2022-12-05T01:23:46;10.57;;;6.30;;
42668;SDS011;29384;42.028;21.388;2022-12-05T01:26:12;9.68;;;6.65;;
42668;SDS011;29384;42.028;21.388;2022-12-05T01:28:41;9.55;;;6.65;;
42668;SDS011;29384;42.028;21.388;2022-12-05T01:31:13;8.90;;;5.78;;
42668;SDS011;29384;42.028;21.388;2022-12-05T01:33:43;6.20;;;5.65;;
42668;SDS011;29384;42.028;21.388;2022-12-05T01:36:15;7.88;;;5.78;;
42668;SDS011;29384;42.028;21.388;2022-12-05T01:38:43;7.68;;;6.05;;
42668;SDS011;29384;42.028;21.388;2022-12-05T01:41:10;7.70;;;5.47;;
42668;SDS011;29384;42.028;21.388;2022-12-05T01:46:19;6.85;;;6.20;;
42668;SDS011;29384;42.028;21.388;2022-12-05T01:48:45;7.65;;;6.53;;
42668;SDS011;29384;42.028;21.388;2022-12-05T01:51:13;8.75;;;6.85;;
42668;SDS011;29384;42.028;21.388;2022-12-05T01:53:44;8.60;;;6.53;;
42668;SDS011;29384;42.028;21.388;2022-12-05T01:56:12;9.45;;;6.55;;
42668;SDS011;29384;42.028;21.388;2022-12-05T01:58:38;9.45;;;6.70;;
42668;SDS011;29384;42.028;21.388;2022-12-05T02:01:08;8.82;;;6.57;;
42668;SDS011;29384;42.028;21.388;2022-12-05T02:03:33;9.73;;;6.68;;
42668;SDS011;29384;42.028;21.388;2022-12-05T02:05:59;7.93;;;6.55;;
42668;SDS011;29384;42.028;21.388;2022-12-05T02:08:33;11.65;;;6.68;;
42668;SDS011;29384;42.028;21.388;2022-12-05T02:11:05;11.80;;;7.47;;
42668;SDS011;29384;42.028;21.388;2022-12-05T02:21:28;51.95;;;21.23;;
42668;SDS011;29384;42.028;21.388;2022-12-05T02:32:21;19.02;;;10.45;;
42668;SDS011;29384;42.028;21.388;2022-12-05T02:37:32;12.95;;;8.90;;
42668;SDS011;29384;42.028;21.388;2022-12-05T02:40:09;23.33;;;9.65;;
42668;SDS011;29384;42.028;21.388;2022-12-05T02:42:41;35.75;;;16.70;;
42668;SDS011;29384;42.028;21.388;2022-12-05T02:45:13;41.03;;;19.00;;
42668;SDS011;29384;42.028;21.388;2022-12-05T02:47:50;25.00;;;14.70;;
42668;SDS011;29384;42.028;21.388;2022-12-05T02:50:19;23.38;;;13.55;;
42668;SDS011;29384;42.028;21.388;2022-12-05T02:52:48;20.67;;;12.88;;
42668;SDS011;29384;42.028;21.388;2022-12-05T02:55:15;25.80;;;14.23;;
42668;SDS011;29384;42.028;21.388;2022-12-05T02:57:41;27.85;;;12.05;;
42668;SDS011;29384;42.028;21.388;2022-12-05T03:00:08;25.80;;;12.93;;
42668;SDS011;29384;42.028;21.388;2022-12-05T03:02:33;18.27;;;11.50;;
42668;SDS011;29384;42.028;21.388;2022-12-05T03:08:09;15.80;;;10.88;;
42668;SDS011;29384;42.028;21.388;2022-12-05T03:10:37;15.77;;;9.82;;
42668;SDS011;29384;42.028;21.388;2022-12-05T03:13:06;13.80;;;8.85;;
42668;SDS011;29384;42.028;21.388;2022-12-05T03:15:37;16.25;;;9.98;;
42668;SDS011;29384;42.028;21.388;2022-12-05T03:18:10;15.05;;;9.55;;
42668;SDS011;29384;42.028;21.388;2022-12-05T03:20:40;16.90;;;9.05;;
42668;SDS011;29384;42.028;21.388;2022-12-05T03:23:19;14.38;;;8.93;;
42668;SDS011;29384;42.028;21.388;2022-12-05T03:25:49;15.55;;;9.57;;
42668;SDS011;29384;42.028;21.388;2022-12-05T03:28:19;16.35;;;11.38;;
42668;SDS011;29384;42.028;21.388;2022-12-05T03:31:05;14.80;;;10.30;;
42668;SDS011;29384;42.028;21.388;2022-12-05T03:33:34;19.48;;;10.63;;
42668;SDS011;29384;42.028;21.388;2022-12-05T03:38:39;25.02;;;13.57;;
42668;SDS011;29384;42.028;21.388;2022-12-05T03:41:18;23.48;;;13.45;;
42668;SDS011;29384;42.028;21.388;2022-12-05T03:57:09;41.85;;;21.50;;
42668;SDS011;29384;42.028;21.388;2022-12-05T03:59:40;54.88;;;20.67;;
42668;SDS011;29384;42.028;21.388;2022-12-05T04:02:19;45.58;;;21.13;;
42668;SDS011;29384;42.028;21.388;2022-12-05T04:04:54;39.10;;;20.13;;
42668;SDS011;29384;42.028;21.388;2022-12-05T04:07:23;34.90;;;18.10;;
42668;SDS011;29384;42.028;21.388;2022-12-05T04:09:59;29.88;;;16.77;;
42668;SDS011;29384;42.028;21.388;2022-12-05T04:12:26;32.20;;;19.20;;
42668;SDS011;29384;42.028;21.388;2022-12-05T04:14:54;31.70;;;18.70;;
42668;SDS011;29384;42.028;21.388;2022-12-05T04:20:16;36.50;;;18.92;;
42668;SDS011;29384;42.028;21.388;2022-12-05T04:23:06;44.08;;;21.92;;
42668;SDS011;29384;42.028;21.388;2022-12-05T04:25:36;44.03;;;20.40;;
42668;SDS011;29384;42.028;21.388;2022-12-05T04:33:50;33.67;;;18.27;;
42668;SDS011;29384;42.028;21.388;2022-12-05T04:36:20;33.50;;;17.83;;
42668;SDS011;29384;42.028;21.388;2022-12-05T04:39:02;28.50;;;16.40;;
42668;SDS011;29384;42.028;21.388;2022-12-05T04:44:00;26.75;;;15.20;;
42668;SDS011;29384;42.028;21.388;2022-12-05T04:46:27;24.00;;;16.10;;
42668;SDS011;29384;42.028;21.388;2022-12-05T04:48:54;23.65;;;14.82;;
42668;SDS011;29384;42.028;21.388;2022-12-05T04:51:21;25.88;;;17.17;;
42668;SDS011;29384;42.028;21.388;2022-12-05T04:53:48;23.08;;;14.95;;
42668;SDS011;29384;42.028;21.388;2022-12-05T04:56:16;29.10;;;14.70;;
42668;SDS011;29384;42.028;21.388;2022-12-05T04:58:45;22.98;;;15.93;;
42668;SDS011;29384;42.028;21.388;2022-12-05T05:01:14;28.20;;;16.77;;
42668;SDS011;29384;42.028;21.388;2022-12-05T05:03:45;28.52;;;16.73;;
42668;SDS011;29384;42.028;21.388;2022-12-05T05:06:14;29.15;;;16.42;;
42668;SDS011;29384;42.028;21.388;2022-12-05T05:08:50;21.45;;;15.85;;
42668;SDS011;29384;42.028;21.388;2022-12-05T05:13:53;30.73;;;18.17;;
42668;SDS011;29384;42.028;21.388;2022-12-05T05:16:32;25.38;;;17.00;;
42668;SDS011;29384;42.028;21.388;2022-12-05T05:21:49;34.20;;;20.13;;
42668;SDS011;29384;42.028;21.388;2022-12-05T05:24:17;29.45;;;19.25;;
42668;SDS011;29384;42.028;21.388;2022-12-05T05:26:43;35.25;;;21.25;;
42668;SDS011;29384;42.028;21.388;2022-12-05T05:29:18;49.55;;;25.63;;
42668;SDS011;29384;42.028;21.388;2022-12-05T05:31:46;48.28;;;24.65;;
42668;SDS011;29384;42.028;21.388;2022-12-05T05:34:18;32.22;;;19.33;;
42668;SDS011;29384;42.028;21.388;2022-12-05T05:36:44;33.70;;;19.17;;
42668;SDS011;29384;42.028;21.388;2022-12-05T05:39:16;27.38;;;19.52;;
42668;SDS011;29384;42.028;21.388;2022-12-05T05:41:42;34.72;;;18.73;;
42668;SDS011;29384;42.028;21.388;2022-12-05T05:44:07;34.33;;;17.63;;
42668;SDS011;29384;42.028;21.388;2022-12-05T05:46:33;21.77;;;15.70;;
42668;SDS011;29384;42.028;21.388;2022-12-05T05:49:08;27.88;;;16.92;;
42668;SDS011;29384;42.028;21.388;2022-12-05T05:51:34;26.65;;;16.73;;
42668;SDS011;29384;42.028;21.388;2022-12-05T05:53:59;30.77;;;15.50;;
42668;SDS011;29384;42.028;21.388;2022-12-05T05:56:25;26.65;;;15.60;;
42668;SDS011;29384;42.028;21.388;2022-12-05T05:58:57;26.92;;;16.13;;
42668;SDS011;29384;42.028;21.388;2022-12-05T06:01:34;26.67;;;16.00;;
42668;SDS011;29384;42.028;21.388;2022-12-05T06:03:59;32.08;;;15.88;;
42668;SDS011;29384;42.028;21.388;2022-12-05T06:06:28;38.10;;;17.83;;
42668;SDS011;29384;42.028;21.388;2022-12-05T06:08:57;39.50;;;20.92;;
42668;SDS011;29384;42.028;21.388;2022-12-05T06:11:49;35.70;;;19.08;;
42668;SDS011;29384;42.028;21.388;2022-12-05T06:14:24;40.13;;;20.20;;
42668;SDS011;29384;42.028;21.388;2022-12-05T06:17:21;27.95;;;17.80;;
42668;SDS011;29384;42.028;21.388;2022-12-05T06:19:49;26.17;;;18.15;;
42668;SDS011;29384;42.028;21.388;2022-12-05T06:22:17;28.10;;;15.73;;
42668;SDS011;29384;42.028;21.388;2022-12-05T06:25:12;24.95;;;13.25;;
42668;SDS011;29384;42.028;21.388;2022-12-05T06:27:37;28.08;;;14.60;;
42668;SDS011;29384;42.028;21.388;2022-12-05T06:30:10;31.27;;;16.20;;
42668;SDS011;29384;42.028;21.388;2022-12-05T06:32:53;21.98;;;14.60;;
42668;SDS011;29384;42.028;21.388;2022-12-05T06:35:24;26.55;;;14.25;;
42668;SDS011;29384;42.028;21.388;2022-12-05T06:37:54;24.98;;;14.20;;
42668;SDS011;29384;42.028;21.388;2022-12-05T06:40:20;33.70;;;16.40;;
42668;SDS011;29384;42.028;21.388;2022-12-05T06:43:05;32.33;;;14.65;;
42668;SDS011;29384;42.028;21.388;2022-12-05T06:45:43;30.80;;;14.35;;
42668;SDS011;29384;42.028;21.388;2022-12-05T06:48:38;29.25;;;15.35;;
42668;SDS011;29384;42.028;21.388;2022-12-05T06:51:10;43.70;;;17.00;;
42668;SDS011;29384;42.028;21.388;2022-12-05T06:53:36;43.63;;;18.83;;
42668;SDS011;29384;42.028;21.388;2022-12-05T06:56:31;39.00;;;18.95;;
42668;SDS011;29384;42.028;21.388;2022-12-05T06:58:57;42.75;;;18.13;;
42668;SDS011;29384;42.028;21.388;2022-12-05T07:01:22;55.08;;;20.45;;
42668;SDS011;29384;42.028;21.388;2022-12-05T07:09:11;43.13;;;18.27;;
42668;SDS011;29384;42.028;21.388;2022-12-05T07:11:36;45.03;;;19.10;;
42668;SDS011;29384;42.028;21.388;2022-12-05T07:14:08;44.22;;;17.13;;
42668;SDS011;29384;42.028;21.388;2022-12-05T07:16:34;38.53;;;16.77;;
42668;SDS011;29384;42.028;21.388;2022-12-05T07:18:59;48.38;;;16.75;;
42668;SDS011;29384;42.028;21.388;2022-12-05T07:21:24;46.50;;;16.10;;
42668;SDS011;29384;42.028;21.388;2022-12-05T07:23:53;36.42;;;16.50;;
42668;SDS011;29384;42.028;21.388;2022-12-05T07:26:21;48.63;;;17.95;;
42668;SDS011;29384;42.028;21.388;2022-12-05T07:28:47;48.10;;;17.70;;
42668;SDS011;29384;42.028;21.388;2022-12-05T07:31:14;35.00;;;16.33;;
42668;SDS011;29384;42.028;21.388;2022-12-05T07:33:43;34.97;;;14.68;;
42668;SDS011;29384;42.028;21.388;2022-12-05T07:36:12;35.53;;;15.32;;
42668;SDS011;29384;42.028;21.388;2022-12-05T07:38:41;37.50;;;17.35;;
42668;SDS011;29384;42.028;21.388;2022-12-05T07:41:07;43.22;;;16.00;;
42668;SDS011;29384;42.028;21.388;2022-12-05T07:43:33;43.05;;;17.25;;
42668;SDS011;29384;42.028;21.388;2022-12-05T07:46:05;37.13;;;16.17;;
42668;SDS011;29384;42.028;21.388;2022-12-05T07:48:35;48.50;;;17.60;;
42668;SDS011;29384;42.028;21.388;2022-12-05T07:51:00;43.85;;;15.57;;
42668;SDS011;29384;42.028;21.388;2022-12-05T07:53:30;27.90;;;14.80;;
42668;SDS011;29384;42.028;21.388;2022-12-05T07:56:17;47.30;;;19.00;;
42668;SDS011;29384;42.028;21.388;2022-12-05T07:58:44;41.45;;;17.98;;
42668;SDS011;29384;42.028;21.388;2022-12-05T08:03:35;14.43;;;9.73;;
42668;SDS011;29384;42.028;21.388;2022-12-05T08:06:02;13.65;;;9.20;;
42668;SDS011;29384;42.028;21.388;2022-12-05T08:08:30;12.27;;;8.80;;
42668;SDS011;29384;42.028;21.388;2022-12-05T08:11:09;17.85;;;11.20;;
42668;SDS011;29384;42.028;21.388;2022-12-05T08:13:34;18.70;;;10.70;;
42668;SDS011;29384;42.028;21.388;2022-12-05T08:16:10;22.80;;;11.82;;
42668;SDS011;29384;42.028;21.388;2022-12-05T08:18:46;21.90;;;11.73;;
42668;SDS011;29384;42.028;21.388;2022-12-05T08:21:12;20.25;;;12.05;;
42668;SDS011;29384;42.028;21.388;2022-12-05T08:23:38;17.08;;;10.98;;
42668;SDS011;29384;42.028;21.388;2022-12-05T08:28:59;14.80;;;8.93;;
42668;SDS011;29384;42.028;21.388;2022-12-05T08:31:23;16.17;;;8.07;;
42668;SDS011;29384;42.028;21.388;2022-12-05T08:33:49;11.75;;;8.05;;
42668;SDS011;29384;42.028;21.388;2022-12-05T08:36:23;12.70;;;8.48;;
42668;SDS011;29384;42.028;21.388;2022-12-05T08:39:07;12.48;;;7.10;;
42668;SDS011;29384;42.028;21.388;2022-12-05T08:41:35;13.07;;;9.13;;
42668;SDS011;29384;42.028;21.388;2022-12-05T08:44:04;19.25;;;8.05;;
42668;SDS011;29384;42.028;21.388;2022-12-05T08:46:35;12.38;;;8.57;;
42668;SDS011;29384;42.028;21.388;2022-12-05T08:49:01;14.48;;;8.80;;
42668;SDS011;29384;42.028;21.388;2022-12-05T08:51:26;17.85;;;9.73;;
42668;SDS011;29384;42.028;21.388;2022-12-05T08:53:57;15.77;;;10.45;;
42668;SDS011;29384;42.028;21.388;2022-12-05T08:56:25;21.77;;;10.65;;
42668;SDS011;29384;42.028;21.388;2022-12-05T08:59:06;21.33;;;11.82;;
42668;SDS011;29384;42.028;21.388;2022-12-05T09:01:32;20.52;;;11.32;;
42668;SDS011;29384;42.028;21.388;2022-12-05T09:04:02;18.65;;;11.93;;
42668;SDS011;29384;42.028;21.388;2022-12-05T09:06:34;21.60;;;12.05;;
42668;SDS011;29384;42.028;21.388;2022-12-05T09:09:16;20.83;;;9.63;;
42668;SDS011;29384;42.028;21.388;2022-12-05T09:11:44;18.88;;;11.82;;
42668;SDS011;29384;42.028;21.388;2022-12-05T09:14:14;23.27;;;11.82;;
42668;SDS011;29384;42.028;21.388;2022-12-05T09:16:50;19.30;;;10.40;;
42668;SDS011;29384;42.028;21.388;2022-12-05T09:19:16;27.00;;;9.77;;
42668;SDS011;29384;42.028;21.388;2022-12-05T09:21:42;20.65;;;10.77;;
42668;SDS011;29384;42.028;21.388;2022-12-05T09:24:11;20.35;;;10.43;;
42668;SDS011;29384;42.028;21.388;2022-12-05T09:26:37;17.90;;;10.82;;
42668;SDS011;29384;42.028;21.388;2022-12-05T09:29:02;23.88;;;12.60;;
42668;SDS011;29384;42.028;21.388;2022-12-05T09:31:27;17.33;;;10.52;;
42668;SDS011;29384;42.028;21.388;2022-12-05T09:33:56;22.48;;;9.77;;
42668;SDS011;29384;42.028;21.388;2022-12-05T09:36:25;22.40;;;10.88;;
42668;SDS011;29384;42.028;21.388;2022-12-05T09:38:54;18.08;;;10.07;;
42668;SDS011;29384;42.028;21.388;2022-12-05T09:47:10;16.73;;;11.02;;
42668;SDS011;29384;42.028;21.388;2022-12-05T09:52:40;12.93;;;9.02;;
42668;SDS011;29384;42.028;21.388;2022-12-05T09:55:16;16.00;;;10.45;;
42668;SDS011;29384;42.028;21.388;2022-12-05T09:57:59;13.98;;;8.82;;
42668;SDS011;29384;42.028;21.388;2022-12-05T10:00:27;19.30;;;9.80;;
42668;SDS011;29384;42.028;21.388;2022-12-05T10:05:26;18.10;;;10.07;;
42668;SDS011;29384;42.028;21.388;2022-12-05T10:10:24;19.75;;;10.50;;
42668;SDS011;29384;42.028;21.388;2022-12-05T10:15:35;20.30;;;10.43;;
42668;SDS011;29384;42.028;21.388;2022-12-05T10:20:34;21.17;;;12.13;;
42668;SDS011;29384;42.028;21.388;2022-12-05T10:23:10;23.05;;;11.73;;
42668;SDS011;29384;42.028;21.388;2022-12-05T10:25:36;22.27;;;12.20;;
42668;SDS011;29384;42.028;21.388;2022-12-05T10:28:04;18.90;;;12.27;;
42668;SDS011;29384;42.028;21.388;2022-12-05T10:30:31;27.55;;;12.50;;
42668;SDS011;29384;42.028;21.388;2022-12-05T10:33:03;22.30;;;13.43;;
42668;SDS011;29384;42.028;21.388;2022-12-05T10:35:36;24.58;;;13.07;;
42668;SDS011;29384;42.028;21.388;2022-12-05T10:38:03;30.15;;;14.23;;
42668;SDS011;29384;42.028;21.388;2022-12-05T10:40:32;28.30;;;13.23;;
42668;SDS011;29384;42.028;21.388;2022-12-05T10:42:58;24.92;;;14.63;;
42668;SDS011;29384;42.028;21.388;2022-12-05T10:45:23;33.95;;;15.40;;
42668;SDS011;29384;42.028;21.388;2022-12-05T10:47:52;44.80;;;15.52;;
42668;SDS011;29384;42.028;21.388;2022-12-05T10:50:21;29.55;;;15.25;;
42668;SDS011;29384;42.028;21.388;2022-12-05T10:52:46;24.83;;;15.20;;
42668;SDS011;29384;42.028;21.388;2022-12-05T10:55:13;35.50;;;15.75;;
42668;SDS011;29384;42.028;21.388;2022-12-05T10:57:40;26.67;;;13.52;;
42668;SDS011;29384;42.028;21.388;2022-12-05T11:00:09;25.67;;;13.73;;
42668;SDS011;29384;42.028;21.388;2022-12-05T11:02:35;27.70;;;13.05;;
42668;SDS011;29384;42.028;21.388;2022-12-05T11:05:02;30.50;;;15.13;;
42668;SDS011;29384;42.028;21.388;2022-12-05T11:09:56;30.55;;;14.88;;
42668;SDS011;29384;42.028;21.388;2022-12-05T11:12:23;26.63;;;14.55;;
42668;SDS011;29384;42.028;21.388;2022-12-05T11:15:00;35.40;;;16.08;;
42668;SDS011;29384;42.028;21.388;2022-12-05T11:17:31;27.55;;;14.70;;
42668;SDS011;29384;42.028;21.388;2022-12-05T11:19:56;30.70;;;14.48;;
42668;SDS011;29384;42.028;21.388;2022-12-05T11:22:29;26.92;;;14.00;;
42668;SDS011;29384;42.028;21.388;2022-12-05T11:24:54;25.50;;;14.07;;
42668;SDS011;29384;42.028;21.388;2022-12-05T11:27:30;31.95;;;12.57;;
42668;SDS011;29384;42.028;21.388;2022-12-05T11:32:22;13.15;;;8.25;;
42668;SDS011;29384;42.028;21.388;2022-12-05T11:34:52;10.05;;;7.20;;
42668;SDS011;29384;42.028;21.388;2022-12-05T11:37:24;13.73;;;6.97;;
42668;SDS011;29384;42.028;21.388;2022-12-05T11:39:50;14.05;;;7.75;;
42668;SDS011;29384;42.028;21.388;2022-12-05T11:47:27;13.18;;;7.05;;
42668;SDS011;29384;42.028;21.388;2022-12-05T11:55:19;9.13;;;6.55;;
42668;SDS011;29384;42.028;21.388;2022-12-05T11:57:55;6.30;;;4.68;;
42668;SDS011;29384;42.028;21.388;2022-12-05T12:00:27;4.82;;;4.40;;
42668;SDS011;29384;42.028;21.388;2022-12-05T12:05:43;6.97;;;5.55;;
42668;SDS011;29384;42.028;21.388;2022-12-05T12:24:05;6.87;;;4.67;;
42668;SDS011;29384;42.028;21.388;2022-12-05T12:26:39;5.95;;;4.03;;
42668;SDS011;29384;42.028;21.388;2022-12-05T12:31:44;5.10;;;3.65;;
42668;SDS011;29384;42.028;21.388;2022-12-05T12:36:49;7.13;;;3.58;;
42668;SDS011;29384;42.028;21.388;2022-12-05T12:47:03;5.47;;;4.50;;
42668;SDS011;29384;42.028;21.388;2022-12-05T12:50:26;3.58;;;3.35;;
42668;SDS011;29384;42.028;21.388;2022-12-05T12:55:32;3.28;;;3.08;;
42668;SDS011;29384;42.028;21.388;2022-12-05T12:58:15;3.58;;;3.33;;
42668;SDS011;29384;42.028;21.388;2022-12-05T13:06:15;6.25;;;3.17;;
42668;SDS011;29384;42.028;21.388;2022-12-05T13:08:56;3.83;;;3.63;;
42668;SDS011;29384;42.028;21.388;2022-12-05T13:11:23;4.20;;;3.08;;
42668;SDS011;29384;42.028;21.388;2022-12-05T13:13:52;2.75;;;2.55;;
42668;SDS011;29384;42.028;21.388;2022-12-05T13:16:29;3.28;;;3.05;;
42668;SDS011;29384;42.028;21.388;2022-12-05T13:21:57;2.92;;;2.70;;
42668;SDS011;29384;42.028;21.388;2022-12-05T13:24:24;4.53;;;2.95;;
42668;SDS011;29384;42.028;21.388;2022-12-05T13:26:50;3.63;;;3.33;;
42668;SDS011;29384;42.028;21.388;2022-12-05T13:29:20;3.53;;;3.33;;
42668;SDS011;29384;42.028;21.388;2022-12-05T13:31:46;3.60;;;2.90;;
42668;SDS011;29384;42.028;21.388;2022-12-05T13:37:19;1.90;;;1.88;;
42668;SDS011;29384;42.028;21.388;2022-12-05T13:40:03;4.32;;;3.10;;
42668;SDS011;29384;42.028;21.388;2022-12-05T13:42:48;2.08;;;2.00;;
42668;SDS011;29384;42.028;21.388;2022-12-05T13:45:23;1.45;;;1.45;;
42668;SDS011;29384;42.028;21.388;2022-12-05T13:53:38;2.40;;;2.20;;
42668;SDS011;29384;42.028;21.388;2022-12-05T13:56:05;3.60;;;3.17;;
42668;SDS011;29384;42.028;21.388;2022-12-05T13:58:40;2.50;;;2.40;;
42668;SDS011;29384;42.028;21.388;2022-12-05T14:08:59;4.30;;;4.00;;
42668;SDS011;29384;42.028;21.388;2022-12-05T14:11:25;2.67;;;2.58;;
42668;SDS011;29384;42.028;21.388;2022-12-05T14:13:50;1.92;;;1.80;;
42668;SDS011;29384;42.028;21.388;2022-12-05T14:34:28;6.28;;;4.95;;
42668;SDS011;29384;42.028;21.388;2022-12-05T14:39:21;4.80;;;4.38;;
42668;SDS011;29384;42.028;21.388;2022-12-05T14:41:58;6.18;;;4.93;;
42668;SDS011;29384;42.028;21.388;2022-12-05T14:44:24;6.07;;;4.45;;
42668;SDS011;29384;42.028;21.388;2022-12-05T14:46:56;5.43;;;3.78;;
42668;SDS011;29384;42.028;21.388;2022-12-05T14:52:10;5.65;;;5.15;;
42668;SDS011;29384;42.028;21.388;2022-12-05T14:54:36;7.93;;;4.50;;
42668;SDS011;29384;42.028;21.388;2022-12-05T14:57:04;8.45;;;5.18;;
42668;SDS011;29384;42.028;21.388;2022-12-05T14:59:36;9.13;;;5.38;;
42668;SDS011;29384;42.028;21.388;2022-12-05T15:04:35;5.55;;;5.05;;
42668;SDS011;29384;42.028;21.388;2022-12-05T15:07:03;10.68;;;6.43;;
42668;SDS011;29384;42.028;21.388;2022-12-05T15:09:48;7.15;;;4.97;;
42668;SDS011;29384;42.028;21.388;2022-12-05T15:17:35;40.08;;;11.68;;
42668;SDS011;29384;42.028;21.388;2022-12-05T15:20:14;26.30;;;12.80;;
42668;SDS011;29384;42.028;21.388;2022-12-05T15:22:41;52.42;;;14.80;;
42668;SDS011;29384;42.028;21.388;2022-12-05T15:25:20;22.38;;;12.45;;
42668;SDS011;29384;42.028;21.388;2022-12-05T15:27:52;24.55;;;11.98;;
42668;SDS011;29384;42.028;21.388;2022-12-05T15:30:18;18.33;;;9.85;;
42668;SDS011;29384;42.028;21.388;2022-12-05T15:32:43;16.95;;;9.05;;
42668;SDS011;29384;42.028;21.388;2022-12-05T15:35:08;20.50;;;8.90;;
42668;SDS011;29384;42.028;21.388;2022-12-05T15:37:42;18.73;;;10.15;;
42668;SDS011;29384;42.028;21.388;2022-12-05T15:40:14;24.90;;;9.20;;
42668;SDS011;29384;42.028;21.388;2022-12-05T15:47:42;14.13;;;7.18;;
42668;SDS011;29384;42.028;21.388;2022-12-05T15:51:08;13.10;;;5.47;;
42668;SDS011;29384;42.028;21.388;2022-12-05T15:55:44;9.32;;;6.40;;
42668;SDS011;29384;42.028;21.388;2022-12-05T15:58:23;11.98;;;6.70;;
42668;SDS011;29384;42.028;21.388;2022-12-05T16:00:51;9.75;;;7.43;;
42668;SDS011;29384;42.028;21.388;2022-12-05T16:06:25;9.23;;;6.82;;
42668;SDS011;29384;42.028;21.388;2022-12-05T16:08:52;11.55;;;7.10;;
42668;SDS011;29384;42.028;21.388;2022-12-05T16:11:18;18.88;;;8.95;;
42668;SDS011;29384;42.028;21.388;2022-12-05T16:13:45;28.10;;;9.25;;
42668;SDS011;29384;42.028;21.388;2022-12-05T16:16:13;26.55;;;13.73;;
42668;SDS011;29384;42.028;21.388;2022-12-05T16:21:46;42.15;;;19.27;;
42668;SDS011;29384;42.028;21.388;2022-12-05T16:24:21;28.08;;;16.17;;
42668;SDS011;29384;42.028;21.388;2022-12-05T16:26:52;28.35;;;13.68;;
42668;SDS011;29384;42.028;21.388;2022-12-05T16:29:24;23.73;;;13.57;;
42668;SDS011;29384;42.028;21.388;2022-12-05T16:32:34;29.17;;;14.95;;
42668;SDS011;29384;42.028;21.388;2022-12-05T16:37:43;37.60;;;15.70;;
42668;SDS011;29384;42.028;21.388;2022-12-05T16:40:19;26.15;;;13.05;;
42668;SDS011;29384;42.028;21.388;2022-12-05T16:42:45;23.73;;;12.45;;
42668;SDS011;29384;42.028;21.388;2022-12-05T16:45:25;26.67;;;13.52;;
42668;SDS011;29384;42.028;21.388;2022-12-05T16:47:58;25.05;;;14.02;;
42668;SDS011;29384;42.028;21.388;2022-12-05T16:53:27;22.65;;;12.38;;
42668;SDS011;29384;42.028;21.388;2022-12-05T16:55:53;27.00;;;13.43;;
42668;SDS011;29384;42.028;21.388;2022-12-05T16:58:20;22.30;;;12.73;;
42668;SDS011;29384;42.028;21.388;2022-12-05T17:00:46;22.20;;;13.60;;
42668;SDS011;29384;42.028;21.388;2022-12-05T17:03:12;19.35;;;11.80;;
42668;SDS011;29384;42.028;21.388;2022-12-05T17:08:41;20.38;;;13.25;;
42668;SDS011;29384;42.028;21.388;2022-12-05T17:11:09;26.33;;;12.35;;
42668;SDS011;29384;42.028;21.388;2022-12-05T17:13:36;26.10;;;14.05;;
42668;SDS011;29384;42.028;21.388;2022-12-05T17:16:01;29.08;;;14.23;;
42668;SDS011;29384;42.028;21.388;2022-12-05T17:18:29;25.48;;;13.93;;
42668;SDS011;29384;42.028;21.388;2022-12-05T17:20:54;26.10;;;15.35;;
42668;SDS011;29384;42.028;21.388;2022-12-05T17:23:28;22.55;;;14.15;;
42668;SDS011;29384;42.028;21.388;2022-12-05T17:25:54;25.33;;;13.95;;
42668;SDS011;29384;42.028;21.388;2022-12-05T17:28:20;43.67;;;18.77;;
42668;SDS011;29384;42.028;21.388;2022-12-05T17:30:45;64.63;;;20.55;;
42668;SDS011;29384;42.028;21.388;2022-12-05T17:33:11;35.10;;;20.58;;
42668;SDS011;29384;42.028;21.388;2022-12-05T17:38:40;54.53;;;21.45;;
42668;SDS011;29384;42.028;21.388;2022-12-05T17:41:05;31.95;;;18.80;;
42668;SDS011;29384;42.028;21.388;2022-12-05T17:43:31;35.58;;;18.48;;
42668;SDS011;29384;42.028;21.388;2022-12-05T17:45:59;34.45;;;18.00;;
42668;SDS011;29384;42.028;21.388;2022-12-05T17:48:30;38.05;;;18.50;;
42668;SDS011;29384;42.028;21.388;2022-12-05T17:53:59;43.97;;;21.30;;
42668;SDS011;29384;42.028;21.388;2022-12-05T17:56:24;26.42;;;15.88;;
42668;SDS011;29384;42.028;21.388;2022-12-05T17:58:49;24.23;;;15.68;;
42668;SDS011;29384;42.028;21.388;2022-12-05T18:01:16;25.95;;;14.55;;
42668;SDS011;29384;42.028;21.388;2022-12-05T18:03:45;28.40;;;14.40;;
42668;SDS011;29384;42.028;21.388;2022-12-05T18:06:11;27.98;;;15.52;;
42668;SDS011;29384;42.028;21.388;2022-12-05T18:08:36;24.70;;;14.70;;
42668;SDS011;29384;42.028;21.388;2022-12-05T18:11:06;24.58;;;14.68;;
42668;SDS011;29384;42.028;21.388;2022-12-05T18:13:31;30.23;;;16.63;;
42668;SDS011;29384;42.028;21.388;2022-12-05T18:15:57;49.05;;;25.73;;
42668;SDS011;29384;42.028;21.388;2022-12-05T18:18:23;57.83;;;29.75;;